sensor_id;sensor_type;location;lat;lon;timestamp;P1;durP1;ratioP1;P2;durP2;ratioP2
51242;SDS011;37812;47.556;18.718;2022-08-18T00:02:07;8.02;;;3.60;;
51242;SDS011;37812;47.556;18.718;2022-08-18T00:04:34;8.07;;;4.20;;
51242;SDS011;37812;47.556;18.718;2022-08-18T00:07:04;7.55;;;3.78;;
51242;SDS011;37812;47.556;18.718;2022-08-18T00:09:32;9.52;;;4.10;;
51242;SDS011;37812;47.556;18.718;2022-08-18T00:12:01;8.15;;;4.40;;
51242;SDS011;37812;47.556;18.718;2022-08-18T00:14:30;8.63;;;4.37;;
51242;SDS011;37812;47.556;18.718;2022-08-18T00:16:57;8.60;;;4.25;;
51242;SDS011;37812;47.556;18.718;2022-08-18T00:19:23;11.55;;;4.28;;
51242;SDS011;37812;47.556;18.718;2022-08-18T00:21:49;9.13;;;4.37;;
51242;SDS011;37812;47.556;18.718;2022-08-18T00:24:16;7.65;;;3.90;;
51242;SDS011;37812;47.556;18.718;2022-08-18T00:26:42;8.27;;;4.47;;
51242;SDS011;37812;47.556;18.718;2022-08-18T00:29:08;7.90;;;4.03;;
51242;SDS011;37812;47.556;18.718;2022-08-18T00:31:34;7.80;;;3.90;;
51242;SDS011;37812;47.556;18.718;2022-08-18T00:34:00;8.88;;;4.10;;
51242;SDS011;37812;47.556;18.718;2022-08-18T00:36:26;8.82;;;4.35;;
51242;SDS011;37812;47.556;18.718;2022-08-18T00:38:53;9.35;;;4.03;;
51242;SDS011;37812;47.556;18.718;2022-08-18T00:41:20;8.50;;;3.95;;
51242;SDS011;37812;47.556;18.718;2022-08-18T00:43:47;7.53;;;3.80;;
51242;SDS011;37812;47.556;18.718;2022-08-18T00:46:17;8.35;;;4.50;;
51242;SDS011;37812;47.556;18.718;2022-08-18T00:48:45;7.95;;;3.85;;
51242;SDS011;37812;47.556;18.718;2022-08-18T00:53:55;8.00;;;4.00;;
51242;SDS011;37812;47.556;18.718;2022-08-18T00:56:32;9.80;;;4.05;;
51242;SDS011;37812;47.556;18.718;2022-08-18T01:01:58;8.38;;;4.32;;
51242;SDS011;37812;47.556;18.718;2022-08-18T01:04:36;8.85;;;4.55;;
51242;SDS011;37812;47.556;18.718;2022-08-18T01:07:09;10.73;;;4.45;;
51242;SDS011;37812;47.556;18.718;2022-08-18T01:09:38;8.68;;;4.45;;
51242;SDS011;37812;47.556;18.718;2022-08-18T01:12:05;8.63;;;4.47;;
51242;SDS011;37812;47.556;18.718;2022-08-18T01:14:31;8.88;;;4.50;;
51242;SDS011;37812;47.556;18.718;2022-08-18T01:16:57;8.05;;;4.20;;
51242;SDS011;37812;47.556;18.718;2022-08-18T01:19:41;9.88;;;4.68;;
51242;SDS011;37812;47.556;18.718;2022-08-18T01:22:32;9.82;;;4.50;;
51242;SDS011;37812;47.556;18.718;2022-08-18T01:25:03;8.10;;;4.62;;
51242;SDS011;37812;47.556;18.718;2022-08-18T01:27:49;8.00;;;4.60;;
51242;SDS011;37812;47.556;18.718;2022-08-18T01:30:15;8.68;;;3.87;;
51242;SDS011;37812;47.556;18.718;2022-08-18T01:32:42;8.68;;;4.20;;
51242;SDS011;37812;47.556;18.718;2022-08-18T01:35:12;9.15;;;4.32;;
51242;SDS011;37812;47.556;18.718;2022-08-18T01:37:42;8.23;;;4.15;;
51242;SDS011;37812;47.556;18.718;2022-08-18T01:40:08;8.73;;;4.43;;
51242;SDS011;37812;47.556;18.718;2022-08-18T01:42:37;9.38;;;4.35;;
51242;SDS011;37812;47.556;18.718;2022-08-18T01:45:04;8.05;;;4.53;;
51242;SDS011;37812;47.556;18.718;2022-08-18T01:47:32;9.48;;;4.57;;
51242;SDS011;37812;47.556;18.718;2022-08-18T01:50:00;9.02;;;4.00;;
51242;SDS011;37812;47.556;18.718;2022-08-18T01:52:27;9.25;;;4.28;;
51242;SDS011;37812;47.556;18.718;2022-08-18T01:54:54;8.13;;;4.12;;
51242;SDS011;37812;47.556;18.718;2022-08-18T01:57:22;9.93;;;4.40;;
51242;SDS011;37812;47.556;18.718;2022-08-18T01:59:49;9.63;;;4.30;;
51242;SDS011;37812;47.556;18.718;2022-08-18T02:02:16;8.35;;;4.00;;
51242;SDS011;37812;47.556;18.718;2022-08-18T02:04:49;8.40;;;3.90;;
51242;SDS011;37812;47.556;18.718;2022-08-18T02:07:17;8.13;;;4.05;;
51242;SDS011;37812;47.556;18.718;2022-08-18T02:09:43;8.30;;;4.30;;
51242;SDS011;37812;47.556;18.718;2022-08-18T02:12:09;8.10;;;4.10;;
51242;SDS011;37812;47.556;18.718;2022-08-18T02:14:36;8.85;;;4.37;;
51242;SDS011;37812;47.556;18.718;2022-08-18T02:17:03;8.35;;;4.32;;
51242;SDS011;37812;47.556;18.718;2022-08-18T02:19:33;8.68;;;4.20;;
51242;SDS011;37812;47.556;18.718;2022-08-18T02:22:02;8.15;;;4.10;;
51242;SDS011;37812;47.556;18.718;2022-08-18T02:24:29;8.55;;;3.60;;
51242;SDS011;37812;47.556;18.718;2022-08-18T02:26:55;7.95;;;4.07;;
51242;SDS011;37812;47.556;18.718;2022-08-18T02:29:21;8.85;;;4.18;;
51242;SDS011;37812;47.556;18.718;2022-08-18T02:31:47;9.18;;;4.68;;
51242;SDS011;37812;47.556;18.718;2022-08-18T02:34:13;8.52;;;4.37;;
51242;SDS011;37812;47.556;18.718;2022-08-18T02:36:40;7.68;;;3.95;;
51242;SDS011;37812;47.556;18.718;2022-08-18T02:39:06;9.60;;;4.00;;
51242;SDS011;37812;47.556;18.718;2022-08-18T02:41:32;8.10;;;3.97;;
51242;SDS011;37812;47.556;18.718;2022-08-18T02:43:58;7.90;;;4.40;;
51242;SDS011;37812;47.556;18.718;2022-08-18T02:46:25;9.38;;;4.28;;
51242;SDS011;37812;47.556;18.718;2022-08-18T02:48:51;8.32;;;4.32;;
51242;SDS011;37812;47.556;18.718;2022-08-18T02:51:18;8.90;;;4.18;;
51242;SDS011;37812;47.556;18.718;2022-08-18T02:53:45;8.18;;;4.15;;
51242;SDS011;37812;47.556;18.718;2022-08-18T02:59:13;8.23;;;3.58;;
51242;SDS011;37812;47.556;18.718;2022-08-18T03:01:43;7.50;;;3.72;;
51242;SDS011;37812;47.556;18.718;2022-08-18T03:04:14;8.55;;;3.80;;
51242;SDS011;37812;47.556;18.718;2022-08-18T03:06:42;8.48;;;3.42;;
51242;SDS011;37812;47.556;18.718;2022-08-18T03:09:09;7.32;;;3.17;;
51242;SDS011;37812;47.556;18.718;2022-08-18T03:11:36;7.90;;;3.60;;
51242;SDS011;37812;47.556;18.718;2022-08-18T03:14:02;7.55;;;3.53;;
51242;SDS011;37812;47.556;18.718;2022-08-18T03:16:32;8.38;;;3.92;;
51242;SDS011;37812;47.556;18.718;2022-08-18T03:19:00;8.05;;;3.83;;
51242;SDS011;37812;47.556;18.718;2022-08-18T03:21:27;9.13;;;3.83;;
51242;SDS011;37812;47.556;18.718;2022-08-18T03:23:55;8.05;;;3.85;;
51242;SDS011;37812;47.556;18.718;2022-08-18T03:26:22;8.85;;;4.07;;
51242;SDS011;37812;47.556;18.718;2022-08-18T03:28:49;9.32;;;3.53;;
51242;SDS011;37812;47.556;18.718;2022-08-18T03:31:17;8.25;;;3.60;;
51242;SDS011;37812;47.556;18.718;2022-08-18T03:33:45;9.00;;;4.10;;
51242;SDS011;37812;47.556;18.718;2022-08-18T03:36:14;9.02;;;3.58;;
51242;SDS011;37812;47.556;18.718;2022-08-18T03:38:43;9.60;;;3.55;;
51242;SDS011;37812;47.556;18.718;2022-08-18T03:41:11;8.77;;;3.70;;
51242;SDS011;37812;47.556;18.718;2022-08-18T03:43:38;8.32;;;4.30;;
51242;SDS011;37812;47.556;18.718;2022-08-18T03:46:05;10.68;;;4.53;;
51242;SDS011;37812;47.556;18.718;2022-08-18T03:48:34;10.77;;;3.95;;
51242;SDS011;37812;47.556;18.718;2022-08-18T03:51:09;8.05;;;3.70;;
51242;SDS011;37812;47.556;18.718;2022-08-18T03:53:41;8.43;;;4.00;;
51242;SDS011;37812;47.556;18.718;2022-08-18T03:56:11;10.85;;;4.43;;
51242;SDS011;37812;47.556;18.718;2022-08-18T03:58:42;8.90;;;4.47;;
51242;SDS011;37812;47.556;18.718;2022-08-18T04:01:11;8.68;;;4.68;;
51242;SDS011;37812;47.556;18.718;2022-08-18T04:03:49;8.35;;;4.07;;
51242;SDS011;37812;47.556;18.718;2022-08-18T04:06:17;8.68;;;4.22;;
51242;SDS011;37812;47.556;18.718;2022-08-18T04:08:45;8.65;;;4.40;;
51242;SDS011;37812;47.556;18.718;2022-08-18T04:11:11;8.10;;;3.83;;
51242;SDS011;37812;47.556;18.718;2022-08-18T04:13:39;9.57;;;3.62;;
51242;SDS011;37812;47.556;18.718;2022-08-18T04:16:06;8.85;;;3.83;;
51242;SDS011;37812;47.556;18.718;2022-08-18T04:18:32;9.82;;;3.87;;
51242;SDS011;37812;47.556;18.718;2022-08-18T04:21:02;8.20;;;3.10;;
51242;SDS011;37812;47.556;18.718;2022-08-18T04:23:36;10.57;;;4.20;;
51242;SDS011;37812;47.556;18.718;2022-08-18T04:26:03;7.47;;;2.85;;
51242;SDS011;37812;47.556;18.718;2022-08-18T04:28:31;7.57;;;3.20;;
51242;SDS011;37812;47.556;18.718;2022-08-18T04:30:58;8.05;;;3.72;;
51242;SDS011;37812;47.556;18.718;2022-08-18T04:33:27;10.68;;;4.90;;
51242;SDS011;37812;47.556;18.718;2022-08-18T04:35:54;10.10;;;5.25;;
51242;SDS011;37812;47.556;18.718;2022-08-18T04:38:20;8.75;;;4.50;;
51242;SDS011;37812;47.556;18.718;2022-08-18T04:40:49;9.35;;;4.75;;
51242;SDS011;37812;47.556;18.718;2022-08-18T04:43:15;8.77;;;4.80;;
51242;SDS011;37812;47.556;18.718;2022-08-18T04:45:41;9.15;;;5.00;;
51242;SDS011;37812;47.556;18.718;2022-08-18T04:48:09;9.70;;;4.60;;
51242;SDS011;37812;47.556;18.718;2022-08-18T04:50:36;8.98;;;4.90;;
51242;SDS011;37812;47.556;18.718;2022-08-18T04:53:03;8.57;;;4.60;;
51242;SDS011;37812;47.556;18.718;2022-08-18T04:55:48;9.00;;;5.12;;
51242;SDS011;37812;47.556;18.718;2022-08-18T04:58:16;9.45;;;5.68;;
51242;SDS011;37812;47.556;18.718;2022-08-18T05:00:43;11.93;;;5.32;;
51242;SDS011;37812;47.556;18.718;2022-08-18T05:03:10;9.05;;;5.20;;
51242;SDS011;37812;47.556;18.718;2022-08-18T05:05:37;10.50;;;5.50;;
51242;SDS011;37812;47.556;18.718;2022-08-18T05:08:04;10.18;;;6.05;;
51242;SDS011;37812;47.556;18.718;2022-08-18T05:10:30;8.93;;;5.57;;
51242;SDS011;37812;47.556;18.718;2022-08-18T05:12:56;9.55;;;5.45;;
51242;SDS011;37812;47.556;18.718;2022-08-18T05:15:22;10.18;;;6.22;;
51242;SDS011;37812;47.556;18.718;2022-08-18T05:17:48;9.95;;;3.22;;
51242;SDS011;37812;47.556;18.718;2022-08-18T05:20:14;8.52;;;2.53;;
51242;SDS011;37812;47.556;18.718;2022-08-18T05:22:41;11.40;;;7.22;;
51242;SDS011;37812;47.556;18.718;2022-08-18T05:25:08;8.10;;;2.67;;
51242;SDS011;37812;47.556;18.718;2022-08-18T05:27:37;8.25;;;3.55;;
51242;SDS011;37812;47.556;18.718;2022-08-18T05:30:05;10.88;;;6.87;;
51242;SDS011;37812;47.556;18.718;2022-08-18T05:32:33;10.02;;;6.18;;
51242;SDS011;37812;47.556;18.718;2022-08-18T05:35:03;10.13;;;6.90;;
51242;SDS011;37812;47.556;18.718;2022-08-18T05:37:39;10.43;;;6.55;;
51242;SDS011;37812;47.556;18.718;2022-08-18T05:40:22;9.75;;;6.30;;
51242;SDS011;37812;47.556;18.718;2022-08-18T05:42:49;10.38;;;6.97;;
51242;SDS011;37812;47.556;18.718;2022-08-18T05:45:16;10.18;;;6.68;;
51242;SDS011;37812;47.556;18.718;2022-08-18T05:47:44;11.88;;;6.60;;
51242;SDS011;37812;47.556;18.718;2022-08-18T05:50:11;10.27;;;6.60;;
51242;SDS011;37812;47.556;18.718;2022-08-18T05:58:07;9.73;;;6.40;;
51242;SDS011;37812;47.556;18.718;2022-08-18T06:00:51;11.43;;;7.10;;
51242;SDS011;37812;47.556;18.718;2022-08-18T06:03:25;6.95;;;2.35;;
51242;SDS011;37812;47.556;18.718;2022-08-18T06:05:58;7.68;;;2.40;;
51242;SDS011;37812;47.556;18.718;2022-08-18T06:08:28;8.15;;;2.70;;
51242;SDS011;37812;47.556;18.718;2022-08-18T06:11:01;9.57;;;2.83;;
51242;SDS011;37812;47.556;18.718;2022-08-18T06:13:27;8.95;;;2.70;;
51242;SDS011;37812;47.556;18.718;2022-08-18T06:32:23;10.50;;;6.68;;
51242;SDS011;37812;47.556;18.718;2022-08-18T06:35:18;9.65;;;6.07;;
51242;SDS011;37812;47.556;18.718;2022-08-18T06:40:46;9.30;;;6.00;;
51242;SDS011;37812;47.556;18.718;2022-08-18T06:43:13;10.85;;;6.22;;
51242;SDS011;37812;47.556;18.718;2022-08-18T06:45:42;10.98;;;6.50;;
51242;SDS011;37812;47.556;18.718;2022-08-18T06:51:00;9.43;;;6.30;;
51242;SDS011;37812;47.556;18.718;2022-08-18T06:56:25;9.23;;;5.68;;
51242;SDS011;37812;47.556;18.718;2022-08-18T07:01:45;10.75;;;6.40;;
51242;SDS011;37812;47.556;18.718;2022-08-18T07:04:31;9.52;;;6.03;;
51242;SDS011;37812;47.556;18.718;2022-08-18T07:06:58;10.25;;;5.60;;
51242;SDS011;37812;47.556;18.718;2022-08-18T07:09:36;12.10;;;6.18;;
51242;SDS011;37812;47.556;18.718;2022-08-18T07:12:04;8.75;;;5.65;;
51242;SDS011;37812;47.556;18.718;2022-08-18T07:14:40;9.70;;;5.97;;
51242;SDS011;37812;47.556;18.718;2022-08-18T07:17:09;11.85;;;6.20;;
51242;SDS011;37812;47.556;18.718;2022-08-18T07:19:38;9.75;;;6.45;;
51242;SDS011;37812;47.556;18.718;2022-08-18T07:22:10;11.35;;;6.43;;
51242;SDS011;37812;47.556;18.718;2022-08-18T07:24:40;9.45;;;6.18;;
51242;SDS011;37812;47.556;18.718;2022-08-18T07:27:15;9.82;;;6.37;;
51242;SDS011;37812;47.556;18.718;2022-08-18T07:32:44;8.70;;;5.65;;
51242;SDS011;37812;47.556;18.718;2022-08-18T07:35:16;9.25;;;6.30;;
51242;SDS011;37812;47.556;18.718;2022-08-18T07:37:50;10.17;;;6.43;;
51242;SDS011;37812;47.556;18.718;2022-08-18T07:40:44;10.23;;;6.97;;
51242;SDS011;37812;47.556;18.718;2022-08-18T07:43:15;9.95;;;6.60;;
51242;SDS011;37812;47.556;18.718;2022-08-18T07:45:47;11.38;;;7.25;;
51242;SDS011;37812;47.556;18.718;2022-08-18T07:54:16;9.57;;;6.40;;
51242;SDS011;37812;47.556;18.718;2022-08-18T07:57:16;9.35;;;6.32;;
51242;SDS011;37812;47.556;18.718;2022-08-18T08:04:57;10.98;;;7.12;;
51242;SDS011;37812;47.556;18.718;2022-08-18T08:07:31;9.70;;;6.70;;
51242;SDS011;37812;47.556;18.718;2022-08-18T08:10:21;10.85;;;6.87;;
51242;SDS011;37812;47.556;18.718;2022-08-18T08:12:51;10.20;;;7.12;;
51242;SDS011;37812;47.556;18.718;2022-08-18T08:15:30;10.82;;;6.85;;
51242;SDS011;37812;47.556;18.718;2022-08-18T08:18:20;10.43;;;6.68;;
51242;SDS011;37812;47.556;18.718;2022-08-18T08:21:08;11.45;;;6.65;;
51242;SDS011;37812;47.556;18.718;2022-08-18T08:23:51;9.70;;;6.47;;
51242;SDS011;37812;47.556;18.718;2022-08-18T08:36:39;12.43;;;7.03;;
51242;SDS011;37812;47.556;18.718;2022-08-18T08:39:11;10.63;;;7.20;;
51242;SDS011;37812;47.556;18.718;2022-08-18T08:41:46;11.02;;;6.93;;
51242;SDS011;37812;47.556;18.718;2022-08-18T08:47:02;15.95;;;7.07;;
51242;SDS011;37812;47.556;18.718;2022-08-18T08:52:14;10.85;;;6.90;;
51242;SDS011;37812;47.556;18.718;2022-08-18T08:57:28;9.90;;;6.30;;
51242;SDS011;37812;47.556;18.718;2022-08-18T09:00:04;11.55;;;6.62;;
51242;SDS011;37812;47.556;18.718;2022-08-18T09:05:42;10.82;;;6.55;;
51242;SDS011;37812;47.556;18.718;2022-08-18T09:11:30;9.52;;;6.25;;
51242;SDS011;37812;47.556;18.718;2022-08-18T09:16:23;11.45;;;6.62;;
51242;SDS011;37812;47.556;18.718;2022-08-18T09:19:07;9.75;;;5.97;;
51242;SDS011;37812;47.556;18.718;2022-08-18T09:22:12;9.63;;;5.57;;
51242;SDS011;37812;47.556;18.718;2022-08-18T09:24:45;9.75;;;6.05;;
51242;SDS011;37812;47.556;18.718;2022-08-18T09:29:48;9.63;;;6.10;;
51242;SDS011;37812;47.556;18.718;2022-08-18T09:40:45;10.27;;;6.20;;
51242;SDS011;37812;47.556;18.718;2022-08-18T09:44:55;9.82;;;5.82;;
51242;SDS011;37812;47.556;18.718;2022-08-18T09:51:48;10.52;;;6.50;;
51242;SDS011;37812;47.556;18.718;2022-08-18T09:54:16;10.45;;;6.03;;
51242;SDS011;37812;47.556;18.718;2022-08-18T10:02:05;9.10;;;5.78;;
51242;SDS011;37812;47.556;18.718;2022-08-18T10:04:33;11.23;;;6.07;;
51242;SDS011;37812;47.556;18.718;2022-08-18T10:07:15;8.80;;;5.68;;
51242;SDS011;37812;47.556;18.718;2022-08-18T10:10:09;8.45;;;5.40;;
51242;SDS011;37812;47.556;18.718;2022-08-18T10:12:41;10.63;;;5.70;;
51242;SDS011;37812;47.556;18.718;2022-08-18T10:28:57;8.57;;;5.18;;
51242;SDS011;37812;47.556;18.718;2022-08-18T10:37:16;9.45;;;5.78;;
51242;SDS011;37812;47.556;18.718;2022-08-18T10:40:02;9.20;;;5.65;;
51242;SDS011;37812;47.556;18.718;2022-08-18T10:45:43;9.32;;;5.50;;
51242;SDS011;37812;47.556;18.718;2022-08-18T10:48:20;8.73;;;5.50;;
51242;SDS011;37812;47.556;18.718;2022-08-18T10:54:34;9.30;;;5.95;;
51242;SDS011;37812;47.556;18.718;2022-08-18T11:04:25;10.02;;;6.40;;
51242;SDS011;37812;47.556;18.718;2022-08-18T11:07:13;9.75;;;6.20;;
51242;SDS011;37812;47.556;18.718;2022-08-18T11:09:44;9.43;;;5.80;;
51242;SDS011;37812;47.556;18.718;2022-08-18T11:12:14;9.60;;;6.00;;
51242;SDS011;37812;47.556;18.718;2022-08-18T11:15:23;10.25;;;5.80;;
51242;SDS011;37812;47.556;18.718;2022-08-18T11:24:08;9.15;;;5.78;;
51242;SDS011;37812;47.556;18.718;2022-08-18T11:26:39;10.68;;;5.90;;
51242;SDS011;37812;47.556;18.718;2022-08-18T11:31:49;9.45;;;5.80;;
51242;SDS011;37812;47.556;18.718;2022-08-18T11:34:27;10.10;;;5.32;;
51242;SDS011;37812;47.556;18.718;2022-08-18T11:37:00;9.32;;;5.50;;
51242;SDS011;37812;47.556;18.718;2022-08-18T11:39:30;8.88;;;5.65;;
51242;SDS011;37812;47.556;18.718;2022-08-18T11:41:56;9.30;;;6.28;;
51242;SDS011;37812;47.556;18.718;2022-08-18T11:44:24;9.32;;;5.80;;
51242;SDS011;37812;47.556;18.718;2022-08-18T11:47:07;9.38;;;6.10;;
51242;SDS011;37812;47.556;18.718;2022-08-18T11:50:04;9.77;;;6.15;;
51242;SDS011;37812;47.556;18.718;2022-08-18T11:52:50;9.32;;;5.95;;
51242;SDS011;37812;47.556;18.718;2022-08-18T11:55:19;8.35;;;5.55;;
51242;SDS011;37812;47.556;18.718;2022-08-18T11:57:57;9.30;;;5.80;;
51242;SDS011;37812;47.556;18.718;2022-08-18T12:06:10;9.02;;;5.90;;
51242;SDS011;37812;47.556;18.718;2022-08-18T12:08:55;8.75;;;5.45;;
51242;SDS011;37812;47.556;18.718;2022-08-18T12:11:34;8.43;;;5.50;;
51242;SDS011;37812;47.556;18.718;2022-08-18T12:14:07;9.57;;;5.60;;
51242;SDS011;37812;47.556;18.718;2022-08-18T12:16:41;11.63;;;5.60;;
51242;SDS011;37812;47.556;18.718;2022-08-18T12:19:09;9.70;;;5.80;;
51242;SDS011;37812;47.556;18.718;2022-08-18T12:21:41;8.88;;;5.50;;
51242;SDS011;37812;47.556;18.718;2022-08-18T12:26:50;8.70;;;5.60;;
51242;SDS011;37812;47.556;18.718;2022-08-18T12:29:17;8.40;;;5.37;;
51242;SDS011;37812;47.556;18.718;2022-08-18T12:31:45;9.05;;;5.75;;
51242;SDS011;37812;47.556;18.718;2022-08-18T12:34:12;9.15;;;5.78;;
51242;SDS011;37812;47.556;18.718;2022-08-18T12:36:38;9.63;;;5.43;;
51242;SDS011;37812;47.556;18.718;2022-08-18T12:39:05;10.68;;;5.90;;
51242;SDS011;37812;47.556;18.718;2022-08-18T12:41:31;8.70;;;5.87;;
51242;SDS011;37812;47.556;18.718;2022-08-18T12:43:57;9.60;;;5.95;;
51242;SDS011;37812;47.556;18.718;2022-08-18T12:46:23;9.55;;;6.10;;
51242;SDS011;37812;47.556;18.718;2022-08-18T12:48:49;10.05;;;5.60;;
51242;SDS011;37812;47.556;18.718;2022-08-18T12:51:15;8.88;;;6.07;;
51242;SDS011;37812;47.556;18.718;2022-08-18T12:53:41;10.13;;;6.12;;
51242;SDS011;37812;47.556;18.718;2022-08-18T12:56:09;9.10;;;5.60;;
51242;SDS011;37812;47.556;18.718;2022-08-18T12:58:49;10.43;;;6.00;;
51242;SDS011;37812;47.556;18.718;2022-08-18T13:01:16;8.68;;;5.47;;
51242;SDS011;37812;47.556;18.718;2022-08-18T13:03:44;9.90;;;5.80;;
51242;SDS011;37812;47.556;18.718;2022-08-18T13:06:11;11.23;;;5.65;;
51242;SDS011;37812;47.556;18.718;2022-08-18T13:08:38;9.07;;;5.60;;
51242;SDS011;37812;47.556;18.718;2022-08-18T13:11:04;8.55;;;5.35;;
51242;SDS011;37812;47.556;18.718;2022-08-18T13:13:38;8.43;;;5.40;;
51242;SDS011;37812;47.556;18.718;2022-08-18T13:16:05;9.63;;;5.85;;
51242;SDS011;37812;47.556;18.718;2022-08-18T13:18:33;10.23;;;6.03;;
51242;SDS011;37812;47.556;18.718;2022-08-18T13:21:00;9.38;;;6.37;;
51242;SDS011;37812;47.556;18.718;2022-08-18T13:23:28;9.75;;;5.95;;
51242;SDS011;37812;47.556;18.718;2022-08-18T13:25:55;9.45;;;5.45;;
51242;SDS011;37812;47.556;18.718;2022-08-18T13:28:23;9.63;;;5.90;;
51242;SDS011;37812;47.556;18.718;2022-08-18T13:30:51;10.48;;;6.12;;
51242;SDS011;37812;47.556;18.718;2022-08-18T13:33:36;8.55;;;5.43;;
51242;SDS011;37812;47.556;18.718;2022-08-18T13:36:12;8.70;;;5.50;;
51242;SDS011;37812;47.556;18.718;2022-08-18T13:38:38;9.60;;;5.75;;
51242;SDS011;37812;47.556;18.718;2022-08-18T13:41:07;9.52;;;5.60;;
51242;SDS011;37812;47.556;18.718;2022-08-18T13:43:35;9.73;;;5.60;;
51242;SDS011;37812;47.556;18.718;2022-08-18T13:46:07;8.70;;;5.40;;
51242;SDS011;37812;47.556;18.718;2022-08-18T13:48:34;9.15;;;5.87;;
51242;SDS011;37812;47.556;18.718;2022-08-18T13:51:21;9.35;;;5.72;;
51242;SDS011;37812;47.556;18.718;2022-08-18T13:53:48;14.70;;;5.90;;
51242;SDS011;37812;47.556;18.718;2022-08-18T13:56:15;8.73;;;5.53;;
51242;SDS011;37812;47.556;18.718;2022-08-18T13:58:42;9.20;;;5.70;;
51242;SDS011;37812;47.556;18.718;2022-08-18T14:01:08;8.50;;;5.80;;
51242;SDS011;37812;47.556;18.718;2022-08-18T14:03:36;9.32;;;5.50;;
51242;SDS011;37812;47.556;18.718;2022-08-18T14:06:04;11.12;;;5.53;;
51242;SDS011;37812;47.556;18.718;2022-08-18T14:08:30;9.10;;;5.22;;
51242;SDS011;37812;47.556;18.718;2022-08-18T14:10:57;9.15;;;5.70;;
51242;SDS011;37812;47.556;18.718;2022-08-18T14:13:25;8.70;;;5.20;;
51242;SDS011;37812;47.556;18.718;2022-08-18T14:15:53;9.18;;;5.30;;
51242;SDS011;37812;47.556;18.718;2022-08-18T14:18:24;8.43;;;5.18;;
51242;SDS011;37812;47.556;18.718;2022-08-18T14:21:03;9.35;;;5.30;;
51242;SDS011;37812;47.556;18.718;2022-08-18T14:23:47;9.07;;;5.12;;
51242;SDS011;37812;47.556;18.718;2022-08-18T14:26:32;8.50;;;5.05;;
51242;SDS011;37812;47.556;18.718;2022-08-18T14:29:13;11.32;;;5.40;;
51242;SDS011;37812;47.556;18.718;2022-08-18T14:31:40;8.50;;;5.32;;
51242;SDS011;37812;47.556;18.718;2022-08-18T14:34:07;9.52;;;5.53;;
51242;SDS011;37812;47.556;18.718;2022-08-18T14:36:33;9.20;;;5.32;;
51242;SDS011;37812;47.556;18.718;2022-08-18T14:38:59;9.38;;;5.10;;
51242;SDS011;37812;47.556;18.718;2022-08-18T14:41:26;8.60;;;5.25;;
51242;SDS011;37812;47.556;18.718;2022-08-18T14:43:53;8.50;;;5.10;;
51242;SDS011;37812;47.556;18.718;2022-08-18T14:46:21;9.20;;;5.10;;
51242;SDS011;37812;47.556;18.718;2022-08-18T14:48:47;8.35;;;5.07;;
51242;SDS011;37812;47.556;18.718;2022-08-18T14:51:14;9.50;;;5.25;;
51242;SDS011;37812;47.556;18.718;2022-08-18T14:53:40;8.60;;;5.20;;
51242;SDS011;37812;47.556;18.718;2022-08-18T14:56:06;8.20;;;4.95;;
51242;SDS011;37812;47.556;18.718;2022-08-18T14:58:33;12.70;;;5.20;;
51242;SDS011;37812;47.556;18.718;2022-08-18T15:01:00;9.13;;;5.28;;
51242;SDS011;37812;47.556;18.718;2022-08-18T15:03:32;8.40;;;5.10;;
51242;SDS011;37812;47.556;18.718;2022-08-18T15:06:00;9.18;;;5.30;;
51242;SDS011;37812;47.556;18.718;2022-08-18T15:08:27;9.57;;;5.20;;
51242;SDS011;37812;47.556;18.718;2022-08-18T15:10:54;8.52;;;5.28;;
51242;SDS011;37812;47.556;18.718;2022-08-18T15:13:22;8.73;;;4.90;;
51242;SDS011;37812;47.556;18.718;2022-08-18T15:15:49;8.48;;;5.05;;
51242;SDS011;37812;47.556;18.718;2022-08-18T15:18:14;12.50;;;5.15;;
51242;SDS011;37812;47.556;18.718;2022-08-18T15:20:42;11.68;;;4.97;;
51242;SDS011;37812;47.556;18.718;2022-08-18T15:23:26;9.57;;;5.47;;
51242;SDS011;37812;47.556;18.718;2022-08-18T15:26:11;8.38;;;4.97;;
51242;SDS011;37812;47.556;18.718;2022-08-18T15:28:37;8.60;;;4.65;;
51242;SDS011;37812;47.556;18.718;2022-08-18T15:31:03;8.35;;;4.78;;
51242;SDS011;37812;47.556;18.718;2022-08-18T15:33:30;8.52;;;4.85;;
51242;SDS011;37812;47.556;18.718;2022-08-18T15:35:56;9.10;;;4.90;;
51242;SDS011;37812;47.556;18.718;2022-08-18T15:38:22;8.60;;;5.10;;
51242;SDS011;37812;47.556;18.718;2022-08-18T15:40:50;9.20;;;5.40;;
51242;SDS011;37812;47.556;18.718;2022-08-18T15:43:18;8.40;;;4.80;;
51242;SDS011;37812;47.556;18.718;2022-08-18T15:45:44;9.25;;;5.37;;
51242;SDS011;37812;47.556;18.718;2022-08-18T15:48:13;8.30;;;5.30;;
51242;SDS011;37812;47.556;18.718;2022-08-18T15:50:40;9.05;;;4.87;;
51242;SDS011;37812;47.556;18.718;2022-08-18T15:53:09;9.45;;;5.20;;
51242;SDS011;37812;47.556;18.718;2022-08-18T15:55:37;9.43;;;4.90;;
51242;SDS011;37812;47.556;18.718;2022-08-18T15:58:04;8.70;;;4.90;;
51242;SDS011;37812;47.556;18.718;2022-08-18T16:00:31;9.18;;;5.50;;
51242;SDS011;37812;47.556;18.718;2022-08-18T16:02:59;8.60;;;5.40;;
51242;SDS011;37812;47.556;18.718;2022-08-18T16:05:31;8.73;;;5.70;;
51242;SDS011;37812;47.556;18.718;2022-08-18T16:08:01;10.23;;;5.32;;
51242;SDS011;37812;47.556;18.718;2022-08-18T16:10:29;8.45;;;5.40;;
51242;SDS011;37812;47.556;18.718;2022-08-18T16:12:57;8.40;;;5.45;;
51242;SDS011;37812;47.556;18.718;2022-08-18T16:15:24;9.05;;;5.22;;
51242;SDS011;37812;47.556;18.718;2022-08-18T16:17:51;8.30;;;5.07;;
51242;SDS011;37812;47.556;18.718;2022-08-18T16:20:19;9.63;;;5.60;;
51242;SDS011;37812;47.556;18.718;2022-08-18T16:22:50;8.68;;;5.35;;
51242;SDS011;37812;47.556;18.718;2022-08-18T16:25:18;8.52;;;5.30;;
51242;SDS011;37812;47.556;18.718;2022-08-18T16:27:44;10.10;;;5.82;;
51242;SDS011;37812;47.556;18.718;2022-08-18T16:30:13;8.23;;;4.90;;
51242;SDS011;37812;47.556;18.718;2022-08-18T16:32:41;7.90;;;5.00;;
51242;SDS011;37812;47.556;18.718;2022-08-18T16:35:07;7.90;;;4.82;;
51242;SDS011;37812;47.556;18.718;2022-08-18T16:37:34;8.95;;;5.40;;
51242;SDS011;37812;47.556;18.718;2022-08-18T16:40:00;8.30;;;4.90;;
51242;SDS011;37812;47.556;18.718;2022-08-18T16:42:26;10.80;;;4.87;;
51242;SDS011;37812;47.556;18.718;2022-08-18T16:45:00;7.90;;;4.70;;
51242;SDS011;37812;47.556;18.718;2022-08-18T16:47:28;9.38;;;5.28;;
51242;SDS011;37812;47.556;18.718;2022-08-18T16:49:57;8.52;;;5.03;;
51242;SDS011;37812;47.556;18.718;2022-08-18T16:52:23;8.65;;;5.37;;
51242;SDS011;37812;47.556;18.718;2022-08-18T16:54:49;9.80;;;5.35;;
51242;SDS011;37812;47.556;18.718;2022-08-18T16:57:15;11.98;;;5.80;;
51242;SDS011;37812;47.556;18.718;2022-08-18T17:00:03;8.23;;;5.03;;
51242;SDS011;37812;47.556;18.718;2022-08-18T17:02:49;10.35;;;5.12;;
51242;SDS011;37812;47.556;18.718;2022-08-18T17:05:34;9.40;;;5.35;;
51242;SDS011;37812;47.556;18.718;2022-08-18T17:08:00;9.02;;;5.32;;
51242;SDS011;37812;47.556;18.718;2022-08-18T17:10:26;8.90;;;5.20;;
51242;SDS011;37812;47.556;18.718;2022-08-18T17:12:52;10.77;;;5.30;;
51242;SDS011;37812;47.556;18.718;2022-08-18T17:15:18;11.07;;;5.25;;
51242;SDS011;37812;47.556;18.718;2022-08-18T17:17:44;8.40;;;5.10;;
51242;SDS011;37812;47.556;18.718;2022-08-18T17:20:10;8.98;;;4.75;;
51242;SDS011;37812;47.556;18.718;2022-08-18T17:22:36;10.13;;;4.90;;
51242;SDS011;37812;47.556;18.718;2022-08-18T17:25:02;10.35;;;5.00;;
51242;SDS011;37812;47.556;18.718;2022-08-18T17:27:30;8.68;;;4.75;;